Dream Angel — 3EEV — position and weather

sailwx.info

Track history (hours):
 
Tides and Currents Weather Stations Pressure Air Temp Water Temp Dewpoint Dewpoint Depression Visibility Wind Speed Wind Dir Waves Ship Positions

Dream Angel

Last reported at 2014-Oct-31 06:14 UTC. Time now 2014-Oct-31 15:45 UTC.
Position N 01°10' E 103°42'.

Length 187 m; draft 7.1 m.

Type: Ship. MMSI: 371820000.

Date/timePositionNaut miles runAvg speedWind from/ knotsBaromVisibWave heightAir tempDewpointWater temp
2014-Oct-31 06:14N 01°10' E 103°42'811.1
2014-Oct-31 05:32N 01°11' E 103°49'1110.7
2014-Oct-31 04:33N 01°16' E 103°58'1 0.3
2014-Oct-31 02:21N 01°17' E 103°58'0 0.1
2014-Oct-31 01:18N 01°17' E 103°58'0 0.0
2014-Oct-31 00:27N 01°17' E 103°58'0 0.0
2014-Oct-30 23:30N 01°17' E 103°58'0 0.0
2014-Oct-30 22:24N 01°17' E 103°58'0 0.0
2014-Oct-30 21:24N 01°17' E 103°58'0 0.0
2014-Oct-30 20:18N 01°17' E 103°58'0 0.0
2014-Oct-30 19:33N 01°17' E 103°58'4 3.9
2014-Oct-30 18:32N 01°17' E 104°02'7 6.6
2014-Oct-30 17:33N 01°23' E 104°01'1 0.1
2014-Oct-30 02:22N 01°24' E 103°60'810.1
2014-Oct-30 01:32N 01°17' E 104°05'1211.7
2014-Oct-30 00:33N 01°14' E 103°54'9 9.0
2014-Oct-29 23:33N 01°16' E 103°45'1 0.7
2014-Oct-29 22:29N 01°17' E 103°45'0 0.0
2014-Oct-29 21:32N 01°17' E 103°45'0 0.0
2014-Oct-29 20:29N 01°17' E 103°45'0 0.0
2014-Oct-29 19:29N 01°17' E 103°45'0 0.0
2014-Oct-29 18:29N 01°17' E 103°45'0 0.0
2014-Oct-29 17:29N 01°17' E 103°45'0 0.0
2014-Oct-29 16:29N 01°17' E 103°45'0 0.0
2014-Oct-29 15:33N 01°17' E 103°45'7 6.8
2014-Oct-29 14:33N 01°12' E 103°50'6 6.0
2014-Oct-29 13:33N 01°14' E 103°56'5 4.9
2014-Oct-29 12:33N 01°15' E 104°00'1110.8
2014-Oct-29 11:33N 01°17' E 104°11'  
Track history (hours):
 
Tides and Currents Weather Stations Pressure Air Temp Water Temp Dewpoint Dewpoint Depression Visibility Wind Speed Wind Dir Waves Ship Positions

Dream Angel

Last reported at 2014-Oct-31 06:14 UTC. Time now 2014-Oct-31 15:45 UTC.
Position N 01°10' E 103°42'.

Length 187 m; draft 7.1 m.

Type: Ship. MMSI: 371820000.

Date/timePositionNaut miles runAvg speedWind from/ knotsBaromVisibWave heightAir tempDewpointWater temp
2014-Oct-31 06:14N 01°10' E 103°42'811.1
2014-Oct-31 05:32N 01°11' E 103°49'1110.7
2014-Oct-31 04:33N 01°16' E 103°58'1 0.3
2014-Oct-31 02:21N 01°17' E 103°58'0 0.1
2014-Oct-31 01:18N 01°17' E 103°58'0 0.0
2014-Oct-31 00:27N 01°17' E 103°58'0 0.0
2014-Oct-30 23:30N 01°17' E 103°58'0 0.0
2014-Oct-30 22:24N 01°17' E 103°58'0 0.0
2014-Oct-30 21:24N 01°17' E 103°58'0 0.0
2014-Oct-30 20:18N 01°17' E 103°58'0 0.0
2014-Oct-30 19:33N 01°17' E 103°58'4 3.9
2014-Oct-30 18:32N 01°17' E 104°02'7 6.6
2014-Oct-30 17:33N 01°23' E 104°01'1 0.1
2014-Oct-30 02:22N 01°24' E 103°60'810.1
2014-Oct-30 01:32N 01°17' E 104°05'1211.7
2014-Oct-30 00:33N 01°14' E 103°54'9 9.0
2014-Oct-29 23:33N 01°16' E 103°45'1 0.7
2014-Oct-29 22:29N 01°17' E 103°45'0 0.0
2014-Oct-29 21:32N 01°17' E 103°45'0 0.0
2014-Oct-29 20:29N 01°17' E 103°45'0 0.0
2014-Oct-29 19:29N 01°17' E 103°45'0 0.0
2014-Oct-29 18:29N 01°17' E 103°45'0 0.0
2014-Oct-29 17:29N 01°17' E 103°45'0 0.0
2014-Oct-29 16:29N 01°17' E 103°45'0 0.0
2014-Oct-29 15:33N 01°17' E 103°45'7 6.8
2014-Oct-29 14:33N 01°12' E 103°50'6 6.0
2014-Oct-29 13:33N 01°14' E 103°56'5 4.9
2014-Oct-29 12:33N 01°15' E 104°00'1110.8
2014-Oct-29 11:33N 01°17' E 104°11'  

Dump ship's entire track history